Time;durP1;ratioP1;P1;durP2;ratioP2;P2;SDS_P1;SDS_P2;PMS_P1;PMS_P2;Temp;Humidity;BMP_temperature;BMP_pressure;BME280_temperature;BME280_humidity;BME280_pressure;Samples;Min_cycle;Max_cycle;Signal;HPM_P1;HPM_P2
2021/07/11 00:00:28;;;;;;;14.56;10.97;;;;;;;;;;395018;104;2072007;-74
2021/07/11 00:01:33;;;;;;;14.83;10.97;;;;;;;;;;377388;105;1960808;-74
2021/07/11 00:02:38;;;;;;;13.73;10.76;;;;;;;;;;377186;107;1960945;-73
2021/07/11 00:03:43;;;;;;;14.03;9.62;;;;;;;;;;372628;107;1960944;-74
2021/07/11 00:04:48;;;;;;;17.24;10.68;;;;;;;;;;362220;109;1964238;-72
2021/07/11 00:05:53;;;;;;;17.38;11.72;;;;;;;;;;328224;107;2171861;-73
2021/07/11 00:07:00;;;;;;;15.21;10.68;;;;;;;;;;368698;108;1961928;-72
2021/07/11 00:08:05;;;;;;;15.55;10.25;;;;;;;;;;369923;107;1961152;-74
2021/07/11 00:09:12;;;;;;;14.80;10.92;;;;;;;;;;336540;107;2087904;-75
2021/07/11 00:10:24;;;;;;;14.60;10.53;;;;;;;;;;396444;104;1985998;-73
2021/07/11 00:11:28;;;;;;;13.99;10.57;;;;;;;;;;377059;106;1969018;-74
2021/07/11 00:12:34;;;;;;;17.56;11.16;;;;;;;;;;377521;106;1962028;-74
2021/07/11 00:13:42;;;;;;;14.94;10.49;;;;;;;;;;371491;109;1962911;-73
2021/07/11 00:14:47;;;;;;;18.63;11.32;;;;;;;;;;321399;110;2164037;-75
2021/07/11 00:15:53;;;;;;;14.84;10.41;;;;;;;;;;308908;108;2522899;-74
2021/07/11 00:16:58;;;;;;;17.01;12.23;;;;;;;;;;357680;108;1962011;-75
2021/07/11 00:18:04;;;;;;;16.14;10.87;;;;;;;;;;325777;108;2189040;-75
2021/07/11 00:19:09;;;;;;;17.56;10.73;;;;;;;;;;303931;108;2389998;-75
2021/07/11 00:20:16;;;;;;;17.42;11.42;;;;;;;;;;371797;108;1961986;-74
2021/07/11 00:21:21;;;;;;;14.36;11.24;;;;;;;;;;372278;108;1963964;-74
2021/07/11 00:22:25;;;;;;;15.48;10.66;;;;;;;;;;354463;108;1961020;-74
2021/07/11 00:23:31;;;;;;;16.20;10.95;;;;;;;;;;307676;108;2355967;-76
2021/07/11 00:24:39;;;;;;;15.66;11.04;;;;;;;;;;304330;108;2392957;-74
2021/07/11 00:25:43;;;;;;;16.80;11.01;;;;;;;;;;371896;109;1962003;-74
2021/07/11 00:26:50;;;;;;;15.67;12.47;;;;;;;;;;370268;107;1962067;-75
2021/07/11 00:27:55;;;;;;;16.53;10.63;;;;;;;;;;371234;108;1962011;-74
2021/07/11 00:29:07;;;;;;;16.33;11.03;;;;;;;;;;395227;103;1986047;-74
2021/07/11 00:30:13;;;;;;;17.86;11.65;;;;;;;;;;374960;105;1969020;-74
2021/07/11 00:31:19;;;;;;;14.66;11.47;;;;;;;;;;364425;105;2845036;-75
2021/07/11 00:32:24;;;;;;;15.02;10.82;;;;;;;;;;366178;105;2902978;-75
2021/07/11 00:33:29;;;;;;;14.16;11.52;;;;;;;;;;369505;106;2871078;-76
2021/07/11 00:34:35;;;;;;;16.39;11.47;;;;;;;;;;368451;106;2881945;-75
2021/07/11 00:35:46;;;;;;;17.61;12.22;;;;;;;;;;388801;103;2071620;-74
2021/07/11 00:36:53;;;;;;;16.21;11.12;;;;;;;;;;375372;106;1964050;-76
2021/07/11 00:37:59;;;;;;;16.88;11.70;;;;;;;;;;373934;106;1961994;-76
2021/07/11 00:39:07;;;;;;;17.22;11.64;;;;;;;;;;374326;107;1962009;-75
2021/07/11 00:40:15;;;;;;;16.17;11.48;;;;;;;;;;362989;110;1963031;-74
2021/07/11 00:41:21;;;;;;;20.24;11.33;;;;;;;;;;367208;109;1969078;-73
2021/07/11 00:42:26;;;;;;;20.15;11.69;;;;;;;;;;372312;107;1963760;-73
2021/07/11 00:43:31;;;;;;;17.11;11.61;;;;;;;;;;371416;108;1960945;-72
2021/07/11 00:44:37;;;;;;;19.01;12.40;;;;;;;;;;364371;109;1964009;-74
2021/07/11 00:45:43;;;;;;;19.46;12.21;;;;;;;;;;364431;108;1962075;-73
2021/07/11 00:46:50;;;;;;;20.49;12.24;;;;;;;;;;372511;108;1962056;-73
2021/07/11 00:47:56;;;;;;;17.94;11.71;;;;;;;;;;357358;107;1961978;-73
2021/07/11 00:49:03;;;;;;;21.57;10.37;;;;;;;;;;328268;109;2127077;-73
2021/07/11 00:50:11;;;;;;;20.22;12.06;;;;;;;;;;357744;111;1962996;-73
2021/07/11 00:51:16;;;;;;;18.47;11.40;;;;;;;;;;372671;109;1961945;-72
2021/07/11 00:52:22;;;;;;;19.26;11.23;;;;;;;;;;373129;107;1962006;-73
2021/07/11 00:53:27;;;;;;;22.27;11.81;;;;;;;;;;373007;107;1961896;-72
2021/07/11 00:54:33;;;;;;;23.63;11.36;;;;;;;;;;367445;108;1961864;-73
2021/07/11 00:55:44;;;;;;;21.57;11.42;;;;;;;;;;360127;101;2228957;-72
2021/07/11 00:56:50;;;;;;;17.39;10.73;;;;;;;;;;337755;103;2205975;-73
2021/07/11 00:58:02;;;;;;;17.87;11.64;;;;;;;;;;387701;104;2075899;-74
2021/07/11 00:59:12;;;;;;;17.18;10.38;;;;;;;;;;372804;107;1961915;-73
2021/07/11 01:00:38;;;;;;;15.60;10.54;;;;;;;;;;371565;107;1962020;-73
2021/07/11 01:01:49;;;;;;;16.53;10.37;;;;;;;;;;375507;108;1964003;-73
2021/07/11 01:02:56;;;;;;;16.71;9.91;;;;;;;;;;371944;107;1961919;-71
2021/07/11 01:04:10;;;;;;;20.49;9.94;;;;;;;;;;330212;106;2334019;-72
2021/07/11 01:05:15;;;;;;;17.23;10.17;;;;;;;;;;367050;108;1970076;-73
2021/07/11 01:06:21;;;;;;;18.16;10.98;;;;;;;;;;369263;108;1962047;-72
2021/07/11 01:07:39;;;;;;;16.77;10.89;;;;;;;;;;353723;110;2839027;-71
2021/07/11 01:08:56;;;;;;;18.97;10.57;;;;;;;;;;397028;104;1965833;-73
2021/07/11 01:10:06;;;;;;;16.14;10.91;;;;;;;;;;377076;105;1963042;-74
2021/07/11 01:11:21;;;;;;;17.90;11.08;;;;;;;;;;397173;104;1986041;-72
2021/07/11 01:12:28;;;;;;;17.07;10.43;;;;;;;;;;317842;106;2541069;-72
2021/07/11 01:13:35;;;;;;;19.91;11.09;;;;;;;;;;378363;106;1962215;-73
2021/07/11 01:14:40;;;;;;;17.53;10.95;;;;;;;;;;376359;105;1961947;-74
2021/07/11 01:15:46;;;;;;;16.08;10.64;;;;;;;;;;367070;108;1962093;-74
2021/07/11 01:16:52;;;;;;;18.88;11.34;;;;;;;;;;366781;107;1961890;-73
2021/07/11 01:18:01;;;;;;;14.99;11.21;;;;;;;;;;374349;105;1965864;-73
2021/07/11 01:19:14;;;;;;;16.52;11.47;;;;;;;;;;375733;105;1961974;-73
2021/07/11 01:20:32;;;;;;;18.03;11.40;;;;;;;;;;376655;106;1960883;-74
2021/07/11 01:21:39;;;;;;;15.64;11.48;;;;;;;;;;376244;105;1962055;-72
2021/07/11 01:22:47;;;;;;;17.98;11.54;;;;;;;;;;315622;109;2254929;-74
2021/07/11 01:23:57;;;;;;;15.82;11.55;;;;;;;;;;363529;109;1963082;-73
2021/07/11 01:25:08;;;;;;;18.56;10.91;;;;;;;;;;369102;108;1961988;-74
2021/07/11 01:26:20;;;;;;;20.88;11.59;;;;;;;;;;386393;106;1986993;-73
2021/07/11 01:27:28;;;;;;;20.54;11.44;;;;;;;;;;366442;107;1969976;-73
2021/07/11 01:28:34;;;;;;;16.46;10.65;;;;;;;;;;354576;109;1961014;-72
2021/07/11 01:29:41;;;;;;;18.23;11.54;;;;;;;;;;363715;109;1962030;-74
2021/07/11 01:30:50;;;;;;;15.98;11.49;;;;;;;;;;310330;111;2834983;-73
2021/07/11 01:31:55;;;;;;;16.93;11.07;;;;;;;;;;357795;110;1962027;-74
2021/07/11 01:33:02;;;;;;;16.12;11.04;;;;;;;;;;361151;109;1961968;-73
2021/07/11 01:34:09;;;;;;;17.53;11.07;;;;;;;;;;363087;109;1962035;-73
2021/07/11 01:35:15;;;;;;;16.24;10.06;;;;;;;;;;363433;109;1962104;-75
2021/07/11 01:36:21;;;;;;;15.04;10.33;;;;;;;;;;336068;112;1961993;-73
2021/07/11 01:37:29;;;;;;;18.39;11.29;;;;;;;;;;356223;111;1961905;-73
2021/07/11 01:38:41;;;;;;;15.67;11.08;;;;;;;;;;387719;105;1986006;-74
2021/07/11 01:39:47;;;;;;;15.01;10.53;;;;;;;;;;370618;107;1969912;-73
2021/07/11 01:40:53;;;;;;;15.40;10.78;;;;;;;;;;337062;107;2041068;-73
2021/07/11 01:41:59;;;;;;;13.92;9.76;;;;;;;;;;370294;107;1961994;-74
2021/07/11 01:43:04;;;;;;;14.88;9.93;;;;;;;;;;364272;107;1964048;-74
2021/07/11 01:44:11;;;;;;;14.16;9.64;;;;;;;;;;362827;109;1963865;-74
2021/07/11 01:45:16;;;;;;;17.11;10.50;;;;;;;;;;361188;109;1963055;-75
2021/07/11 01:46:22;;;;;;;15.31;11.06;;;;;;;;;;362903;109;1962907;-74
2021/07/11 01:47:30;;;;;;;22.14;11.36;;;;;;;;;;333267;109;2052935;-74
2021/07/11 01:48:38;;;;;;;16.66;11.27;;;;;;;;;;361829;109;1961964;-73
2021/07/11 01:49:44;;;;;;;14.71;10.22;;;;;;;;;;362087;111;1962005;-74
2021/07/11 01:54:44;;;;;;;16.38;9.87;;;;;;;;;;398015;104;1987003;-72
2021/07/11 01:55:51;;;;;;;15.48;11.14;;;;;;;;;;379195;105;1969908;-73
2021/07/11 01:56:56;;;;;;;14.27;10.36;;;;;;;;;;382752;105;1961985;-72
2021/07/11 01:58:02;;;;;;;16.89;10.13;;;;;;;;;;376371;107;1961982;-72
2021/07/11 01:59:12;;;;;;;14.89;10.67;;;;;;;;;;376072;107;1964012;-74
2021/07/11 02:00:22;;;;;;;12.89;10.04;;;;;;;;;;376354;107;1961964;-74
2021/07/11 02:01:28;;;;;;;16.28;10.57;;;;;;;;;;375833;107;1961924;-72
2021/07/11 02:02:45;;;;;;;19.69;11.49;;;;;;;;;;397938;104;1986014;-75
2021/07/11 02:03:57;;;;;;;17.80;11.24;;;;;;;;;;347981;104;2219921;-73
2021/07/11 02:05:09;;;;;;;18.17;11.56;;;;;;;;;;306032;103;2411829;-74
2021/07/11 02:06:15;;;;;;;15.77;10.77;;;;;;;;;;375398;103;1960721;-74
2021/07/11 02:07:22;;;;;;;15.96;11.06;;;;;;;;;;367065;106;2911884;-74
2021/07/11 02:08:27;;;;;;;16.65;11.91;;;;;;;;;;373975;103;1960849;-75
2021/07/11 02:09:33;;;;;;;17.89;11.52;;;;;;;;;;373270;107;1960832;-73
2021/07/11 02:10:41;;;;;;;18.54;11.25;;;;;;;;;;376004;107;1960834;-73
2021/07/11 02:11:49;;;;;;;15.19;11.33;;;;;;;;;;377230;107;1961048;-74
2021/07/11 02:12:57;;;;;;;19.12;13.13;;;;;;;;;;319417;109;2867909;-74
2021/07/11 02:14:05;;;;;;;19.01;12.44;;;;;;;;;;369694;107;1960845;-73
2021/07/11 02:15:17;;;;;;;15.23;11.72;;;;;;;;;;385092;103;1986998;-73
2021/07/11 02:16:24;;;;;;;19.09;11.84;;;;;;;;;;372998;105;1969987;-74
2021/07/11 02:17:38;;;;;;;18.21;11.98;;;;;;;;;;378642;106;2895981;-73
2021/07/11 02:18:46;;;;;;;18.67;12.08;;;;;;;;;;364907;109;1967037;-73
2021/07/11 02:20:13;;;;;;;17.36;11.99;;;;;;;;;;319686;110;2864980;-73
2021/07/11 02:21:21;;;;;;;17.40;12.88;;;;;;;;;;360314;112;1961966;-73
2021/07/11 02:22:27;;;;;;;18.92;13.57;;;;;;;;;;360040;110;1964004;-73
2021/07/11 02:23:34;;;;;;;19.47;13.71;;;;;;;;;;355493;113;1962076;-73
2021/07/11 02:24:42;;;;;;;20.32;13.01;;;;;;;;;;353282;112;1962065;-71
2021/07/11 02:25:50;;;;;;;20.06;13.65;;;;;;;;;;317043;111;2783015;-73
2021/07/11 02:26:57;;;;;;;21.03;13.57;;;;;;;;;;357933;110;1962025;-72
2021/07/11 02:28:02;;;;;;;19.82;14.21;;;;;;;;;;357734;111;1962974;-73
2021/07/11 02:29:07;;;;;;;21.60;14.19;;;;;;;;;;358182;111;1962011;-74
2021/07/11 02:30:16;;;;;;;23.66;13.80;;;;;;;;;;359863;110;1962044;-73
2021/07/11 02:31:29;;;;;;;16.72;13.66;;;;;;;;;;394980;104;1988029;-74
2021/07/11 02:32:35;;;;;;;19.79;12.72;;;;;;;;;;375199;106;1969996;-73
2021/07/11 02:33:42;;;;;;;16.23;13.89;;;;;;;;;;369586;108;1962072;-73
2021/07/11 02:34:47;;;;;;;19.57;13.97;;;;;;;;;;370323;108;1962010;-73
2021/07/11 02:35:53;;;;;;;21.82;13.26;;;;;;;;;;370317;107;1964235;-73
2021/07/11 02:37:01;;;;;;;17.29;12.55;;;;;;;;;;368067;108;1963023;-73
2021/07/11 02:38:08;;;;;;;19.36;13.50;;;;;;;;;;369729;108;1962084;-72
2021/07/11 02:39:16;;;;;;;16.54;12.39;;;;;;;;;;368136;108;1961978;-74
2021/07/11 02:40:23;;;;;;;17.99;13.64;;;;;;;;;;370989;108;1961967;-74
2021/07/11 02:41:29;;;;;;;20.32;12.97;;;;;;;;;;370252;108;1961937;-74
2021/07/11 02:42:35;;;;;;;16.57;13.53;;;;;;;;;;370708;108;1965003;-73
2021/07/11 02:43:42;;;;;;;22.18;13.98;;;;;;;;;;372031;109;1961974;-74
2021/07/11 02:44:50;;;;;;;18.73;13.51;;;;;;;;;;371687;108;1963041;-73
2021/07/11 02:45:56;;;;;;;20.02;14.61;;;;;;;;;;370956;108;1961892;-74
2021/07/11 02:47:10;;;;;;;19.52;13.67;;;;;;;;;;370673;108;1962023;-75
2021/07/11 02:48:18;;;;;;;20.78;13.54;;;;;;;;;;367724;108;1962112;-75
2021/07/11 02:49:26;;;;;;;19.03;13.86;;;;;;;;;;326210;108;2818026;-74
2021/07/11 02:50:35;;;;;;;18.70;14.06;;;;;;;;;;310089;108;2482055;-74
2021/07/11 02:51:48;;;;;;;18.68;13.97;;;;;;;;;;393407;104;2074063;-73
2021/07/11 02:52:54;;;;;;;16.97;13.23;;;;;;;;;;371858;107;1970087;-74
2021/07/11 02:54:00;;;;;;;16.98;13.87;;;;;;;;;;374651;105;1962037;-73
2021/07/11 02:55:07;;;;;;;19.29;13.88;;;;;;;;;;373221;107;1961961;-73
2021/07/11 02:56:39;;;;;;;16.84;13.52;;;;;;;;;;399308;103;1961980;-73
2021/07/11 02:57:48;;;;;;;17.66;13.19;;;;;;;;;;371047;105;2834063;-74
2021/07/11 02:58:58;;;;;;;16.38;13.49;;;;;;;;;;364509;108;1962002;-74
2021/07/11 03:00:06;;;;;;;21.46;13.38;;;;;;;;;;373575;108;1961993;-73
2021/07/11 03:01:18;;;;;;;17.41;13.95;;;;;;;;;;392873;104;1986052;-74
2021/07/11 03:02:25;;;;;;;18.33;13.23;;;;;;;;;;375133;106;1970010;-74
2021/07/11 03:03:32;;;;;;;22.17;13.34;;;;;;;;;;369133;107;1962013;-73
2021/07/11 03:04:41;;;;;;;18.16;13.29;;;;;;;;;;369965;109;1961895;-74
2021/07/11 03:05:46;;;;;;;21.59;13.83;;;;;;;;;;364112;110;1962076;-73
2021/07/11 03:06:52;;;;;;;17.44;13.45;;;;;;;;;;355659;112;1962002;-74
2021/07/11 03:07:57;;;;;;;18.16;13.37;;;;;;;;;;371097;107;1961928;-75
2021/07/11 03:09:03;;;;;;;19.14;14.36;;;;;;;;;;368852;109;1962050;-74
2021/07/11 03:10:11;;;;;;;21.37;14.71;;;;;;;;;;373571;107;1961961;-74
2021/07/11 03:11:18;;;;;;;21.79;14.17;;;;;;;;;;336074;107;2647003;-72
2021/07/11 03:12:23;;;;;;;18.74;14.99;;;;;;;;;;371172;107;1961837;-74
2021/07/11 03:13:31;;;;;;;19.44;14.27;;;;;;;;;;369367;107;1961925;-73
2021/07/11 03:14:37;;;;;;;16.66;13.68;;;;;;;;;;372886;107;1961956;-73
2021/07/11 03:15:44;;;;;;;22.18;15.10;;;;;;;;;;350463;107;1962031;-72
2021/07/11 03:16:53;;;;;;;21.52;15.34;;;;;;;;;;371598;107;1962045;-74
2021/07/11 03:18:00;;;;;;;18.25;14.17;;;;;;;;;;328958;107;2723030;-75
2021/07/11 03:19:07;;;;;;;20.32;14.62;;;;;;;;;;370090;107;1962001;-74
2021/07/11 03:20:15;;;;;;;19.15;14.94;;;;;;;;;;370489;107;1962001;-73
2021/07/11 03:21:23;;;;;;;19.24;14.79;;;;;;;;;;329946;107;2770979;-74
2021/07/11 03:22:30;;;;;;;18.24;14.24;;;;;;;;;;369119;107;1961884;-73
2021/07/11 03:23:38;;;;;;;18.76;13.84;;;;;;;;;;326797;109;2862949;-74
2021/07/11 03:24:43;;;;;;;18.64;13.83;;;;;;;;;;335382;109;2029033;-74
2021/07/11 03:25:50;;;;;;;17.01;14.36;;;;;;;;;;366834;107;1961965;-73
2021/07/11 03:27:06;;;;;;;19.43;15.25;;;;;;;;;;369841;107;1962057;-73
2021/07/11 03:28:11;;;;;;;17.21;14.94;;;;;;;;;;356882;112;1961932;-74
2021/07/11 03:29:25;;;;;;;21.50;15.61;;;;;;;;;;366039;109;1962092;-74
2021/07/11 03:30:37;;;;;;;20.98;16.63;;;;;;;;;;367449;108;1962015;-74
2021/07/11 03:31:43;;;;;;;21.84;15.92;;;;;;;;;;367592;107;1964054;-75
2021/07/11 03:32:50;;;;;;;20.63;16.23;;;;;;;;;;369786;107;1963950;-74
2021/07/11 03:34:03;;;;;;;19.81;14.89;;;;;;;;;;385432;105;1985967;-75
2021/07/11 03:35:09;;;;;;;22.97;17.11;;;;;;;;;;366886;110;1969987;-73
2021/07/11 03:36:17;;;;;;;22.84;17.19;;;;;;;;;;359429;112;1962085;-75
2021/07/11 03:37:24;;;;;;;23.33;17.67;;;;;;;;;;315291;108;2807096;-74
2021/07/11 03:38:34;;;;;;;21.84;16.52;;;;;;;;;;362632;110;1962069;-74
2021/07/11 03:39:47;;;;;;;22.82;17.17;;;;;;;;;;396185;104;1986003;-74
2021/07/11 03:40:55;;;;;;;22.49;16.62;;;;;;;;;;375107;105;1970034;-73
2021/07/11 03:42:01;;;;;;;21.47;17.89;;;;;;;;;;377373;104;1962946;-74
2021/07/11 03:43:14;;;;;;;23.15;17.01;;;;;;;;;;392386;104;2081104;-73
2021/07/11 03:44:20;;;;;;;22.45;16.42;;;;;;;;;;374665;107;1968939;-74
2021/07/11 03:45:27;;;;;;;20.15;16.67;;;;;;;;;;326095;107;2821973;-74
2021/07/11 03:46:35;;;;;;;18.81;15.90;;;;;;;;;;369381;108;1965053;-73
2021/07/11 03:47:42;;;;;;;21.46;16.74;;;;;;;;;;371906;107;1962074;-75
2021/07/11 03:48:48;;;;;;;21.68;15.46;;;;;;;;;;327765;108;2141026;-71
2021/07/11 03:49:56;;;;;;;23.34;17.21;;;;;;;;;;372051;107;1964013;-73
2021/07/11 03:51:14;;;;;;;24.72;16.83;;;;;;;;;;391706;104;1986077;-73
2021/07/11 03:52:24;;;;;;;21.59;14.81;;;;;;;;;;381300;105;1969868;-74
2021/07/11 03:53:30;;;;;;;19.66;14.83;;;;;;;;;;301142;110;2350997;-73
2021/07/11 03:54:36;;;;;;;19.63;14.24;;;;;;;;;;370867;108;1961801;-73
2021/07/11 03:55:42;;;;;;;20.07;14.59;;;;;;;;;;370847;108;1961957;-74
2021/07/11 03:57:13;;;;;;;22.30;15.10;;;;;;;;;;415106;99;1985973;-74
2021/07/11 03:58:19;;;;;;;19.90;14.62;;;;;;;;;;391610;101;1961999;-73
2021/07/11 03:59:32;;;;;;;18.72;14.37;;;;;;;;;;351931;104;2773976;-74
2021/07/11 04:00:39;;;;;;;22.91;15.59;;;;;;;;;;373269;107;1961951;-73
2021/07/11 04:02:04;;;;;;;18.56;14.22;;;;;;;;;;340063;105;2128980;-73
2021/07/11 04:03:09;;;;;;;21.43;15.24;;;;;;;;;;377195;105;1961870;-72
2021/07/11 04:04:22;;;;;;;18.76;13.12;;;;;;;;;;396591;104;1984845;-73
2021/07/11 04:05:28;;;;;;;19.27;13.71;;;;;;;;;;376527;107;1967835;-75
2021/07/11 04:06:34;;;;;;;19.27;12.89;;;;;;;;;;353494;107;2859832;-73
2021/07/11 04:07:40;;;;;;;17.58;12.91;;;;;;;;;;335120;107;2786986;-73
2021/07/11 04:08:46;;;;;;;17.76;13.16;;;;;;;;;;300998;109;2407901;-74
2021/07/11 04:09:52;;;;;;;20.22;14.67;;;;;;;;;;363921;109;1960955;-73
2021/07/11 04:11:04;;;;;;;18.83;13.10;;;;;;;;;;397719;104;1964937;-73
2021/07/11 04:12:09;;;;;;;18.76;12.67;;;;;;;;;;379139;106;1962742;-74
2021/07/11 04:13:21;;;;;;;20.23;13.71;;;;;;;;;;386606;104;3015872;-75
2021/07/11 04:14:27;;;;;;;17.79;12.89;;;;;;;;;;375324;106;1960841;-75
2021/07/11 04:15:51;;;;;;;19.33;13.15;;;;;;;;;;373928;106;1962987;-74
2021/07/11 04:16:58;;;;;;;19.29;13.48;;;;;;;;;;376573;105;1960883;-74
2021/07/11 04:18:11;;;;;;;18.01;12.63;;;;;;;;;;332162;106;2625999;-75
2021/07/11 04:19:18;;;;;;;20.41;13.01;;;;;;;;;;378734;106;1960985;-75
2021/07/11 04:20:26;;;;;;;17.76;12.21;;;;;;;;;;375383;105;1960795;-74
2021/07/11 04:21:33;;;;;;;19.65;13.22;;;;;;;;;;365662;106;1962104;-74
2021/07/11 04:22:39;;;;;;;16.47;11.54;;;;;;;;;;376019;106;1962039;-73
2021/07/11 04:23:45;;;;;;;17.31;11.78;;;;;;;;;;373162;107;1962067;-74
2021/07/11 04:24:51;;;;;;;22.01;13.29;;;;;;;;;;370029;109;1962074;-74
2021/07/11 04:25:56;;;;;;;16.93;11.09;;;;;;;;;;377990;105;1961969;-74
2021/07/11 04:27:04;;;;;;;18.29;11.22;;;;;;;;;;322048;109;2591955;-74
2021/07/11 04:28:36;;;;;;;13.84;10.27;;;;;;;;;;387771;105;1987014;-74
2021/07/11 04:29:42;;;;;;;14.82;9.81;;;;;;;;;;363078;111;1968998;-73
2021/07/11 04:30:49;;;;;;;17.41;9.54;;;;;;;;;;362479;109;1961982;-74
2021/07/11 04:31:54;;;;;;;10.93;8.39;;;;;;;;;;353503;111;2922013;-74
2021/07/11 04:33:09;;;;;;;18.97;11.53;;;;;;;;;;390885;104;1987032;-74
2021/07/11 04:34:29;;;;;;;14.14;9.55;;;;;;;;;;371213;108;1969993;-73
2021/07/11 04:35:41;;;;;;;13.54;8.98;;;;;;;;;;363506;108;2858005;-73
2021/07/11 04:36:47;;;;;;;14.44;8.86;;;;;;;;;;294699;110;2482886;-72
2021/07/11 04:37:53;;;;;;;12.72;8.61;;;;;;;;;;303096;113;2564030;-75
2021/07/11 04:38:58;;;;;;;13.18;8.54;;;;;;;;;;312890;113;2612057;-75
2021/07/11 04:40:04;;;;;;;15.52;9.53;;;;;;;;;;314021;114;2620022;-74
2021/07/11 04:41:10;;;;;;;13.74;9.24;;;;;;;;;;307845;113;2208021;-74
2021/07/11 04:42:16;;;;;;;13.24;9.13;;;;;;;;;;353598;113;1961964;-74
2021/07/11 04:43:22;;;;;;;17.39;10.27;;;;;;;;;;345902;115;1963012;-75
2021/07/11 04:44:27;;;;;;;15.31;9.94;;;;;;;;;;348958;115;1962013;-76
2021/07/11 04:45:32;;;;;;;12.84;9.26;;;;;;;;;;336897;117;1961974;-72
2021/07/11 04:46:39;;;;;;;14.43;8.73;;;;;;;;;;337443;118;1964980;-73
2021/07/11 04:47:45;;;;;;;15.46;9.54;;;;;;;;;;344005;115;1962021;-74
2021/07/11 04:48:49;;;;;;;13.86;8.84;;;;;;;;;;343621;115;1961920;-73
2021/07/11 04:49:55;;;;;;;12.91;8.65;;;;;;;;;;345853;116;1962012;-72
2021/07/11 04:51:00;;;;;;;14.17;9.14;;;;;;;;;;345908;115;1961999;-73
2021/07/11 04:52:05;;;;;;;15.52;9.46;;;;;;;;;;344465;117;1962012;-74
2021/07/11 04:53:12;;;;;;;15.97;9.78;;;;;;;;;;339653;117;1960727;-74
2021/07/11 04:54:18;;;;;;;15.80;10.10;;;;;;;;;;340032;116;1962081;-75
2021/07/11 04:55:22;;;;;;;15.24;9.59;;;;;;;;;;340829;117;1962991;-73
2021/07/11 04:56:29;;;;;;;16.38;8.67;;;;;;;;;;339212;117;1962001;-75
2021/07/11 04:57:34;;;;;;;12.72;8.18;;;;;;;;;;339758;119;1962033;-74
2021/07/11 04:58:39;;;;;;;13.02;8.04;;;;;;;;;;339859;117;1961904;-74
2021/07/11 04:59:50;;;;;;;15.13;10.48;;;;;;;;;;401880;104;1987067;-73
2021/07/11 05:00:56;;;;;;;15.20;9.76;;;;;;;;;;378588;107;1970019;-74
2021/07/11 05:02:01;;;;;;;14.05;8.55;;;;;;;;;;380539;105;1961807;-73
2021/07/11 05:03:06;;;;;;;16.32;8.61;;;;;;;;;;369981;107;1963003;-74
2021/07/11 05:04:11;;;;;;;12.93;8.63;;;;;;;;;;377487;106;1961902;-73
2021/07/11 05:05:16;;;;;;;14.06;8.44;;;;;;;;;;374946;107;1962092;-72
2021/07/11 05:06:22;;;;;;;13.45;9.07;;;;;;;;;;376276;105;1961908;-76
2021/07/11 05:07:28;;;;;;;13.36;8.36;;;;;;;;;;374048;105;1962040;-73
2021/07/11 05:08:33;;;;;;;14.20;8.54;;;;;;;;;;372860;107;1963965;-74
2021/07/11 05:09:44;;;;;;;11.30;7.04;;;;;;;;;;395599;104;1988069;-75
2021/07/11 05:10:50;;;;;;;13.65;7.70;;;;;;;;;;377369;107;1969074;-74
2021/07/11 05:11:54;;;;;;;13.91;6.52;;;;;;;;;;375625;107;1962055;-75
2021/07/11 05:13:00;;;;;;;10.32;6.56;;;;;;;;;;365218;109;1961965;-75
2021/07/11 05:14:11;;;;;;;13.23;7.45;;;;;;;;;;398513;104;1986887;-75
2021/07/11 05:15:16;;;;;;;10.86;6.83;;;;;;;;;;378645;107;1969058;-73
2021/07/11 05:16:28;;;;;;;10.51;6.50;;;;;;;;;;387457;106;1985998;-72
2021/07/11 05:17:34;;;;;;;12.28;6.52;;;;;;;;;;368571;108;1969013;-74
2021/07/11 05:18:57;;;;;;;12.15;6.54;;;;;;;;;;324502;110;2169716;-75
2021/07/11 05:20:04;;;;;;;10.71;6.53;;;;;;;;;;308410;110;2588664;-74
2021/07/11 05:21:09;;;;;;;10.82;5.82;;;;;;;;;;363824;110;1960587;-74
2021/07/11 05:22:14;;;;;;;9.57;6.05;;;;;;;;;;364278;110;1960663;-76
2021/07/11 05:25:11;;;;;;;11.76;6.24;;;;;;;;;;393126;103;1985861;-76
2021/07/11 05:26:17;;;;;;;12.42;6.62;;;;;;;;;;377994;107;1969060;-75
2021/07/11 05:27:22;;;;;;;14.74;6.22;;;;;;;;;;362449;111;1961934;-74
2021/07/11 05:28:27;;;;;;;10.38;5.48;;;;;;;;;;369362;107;1962002;-75
2021/07/11 05:29:32;;;;;;;9.21;5.06;;;;;;;;;;343226;107;2003064;-76
2021/07/11 05:30:43;;;;;;;10.44;5.15;;;;;;;;;;396232;104;1985993;-75
2021/07/11 05:31:48;;;;;;;10.99;5.49;;;;;;;;;;365011;105;1970942;-74
2021/07/11 05:32:54;;;;;;;8.83;4.94;;;;;;;;;;307446;107;2399024;-75
2021/07/11 05:33:59;;;;;;;9.82;5.17;;;;;;;;;;308813;108;2557078;-74
2021/07/11 05:35:05;;;;;;;7.47;4.40;;;;;;;;;;288515;111;2500094;-73
2021/07/11 05:36:11;;;;;;;9.83;4.84;;;;;;;;;;354663;111;1961817;-72
2021/07/11 05:37:16;;;;;;;8.06;4.39;;;;;;;;;;371173;107;1962052;-76
2021/07/11 05:38:21;;;;;;;11.73;5.58;;;;;;;;;;358580;107;1961908;-75
2021/07/11 05:39:33;;;;;;;8.43;5.21;;;;;;;;;;378100;108;1987026;-75
2021/07/11 05:40:39;;;;;;;10.36;5.53;;;;;;;;;;359453;112;1970007;-73
2021/07/11 05:41:45;;;;;;;10.43;5.36;;;;;;;;;;360177;112;1963004;-75
2021/07/11 05:42:50;;;;;;;9.77;4.84;;;;;;;;;;360445;112;1961987;-74
2021/07/11 05:43:55;;;;;;;8.83;5.29;;;;;;;;;;353978;112;1963078;-75
2021/07/11 05:45:00;;;;;;;7.66;4.80;;;;;;;;;;351408;112;1962039;-74
2021/07/11 05:46:06;;;;;;;8.72;5.48;;;;;;;;;;352998;112;1961952;-74
2021/07/11 05:47:12;;;;;;;9.36;5.13;;;;;;;;;;321490;112;2111015;-74
2021/07/11 05:48:17;;;;;;;7.83;4.68;;;;;;;;;;353105;112;1962989;-74
2021/07/11 05:49:22;;;;;;;9.34;5.27;;;;;;;;;;314018;112;2207066;-75
2021/07/11 05:50:27;;;;;;;9.92;5.39;;;;;;;;;;287722;112;2439000;-75
2021/07/11 05:51:33;;;;;;;11.82;5.13;;;;;;;;;;316771;112;2167772;-74
2021/07/11 05:52:39;;;;;;;10.38;4.80;;;;;;;;;;311409;112;2664076;-75
2021/07/11 05:53:50;;;;;;;13.57;5.82;;;;;;;;;;391756;104;2070970;-74
2021/07/11 05:54:55;;;;;;;8.71;4.51;;;;;;;;;;370129;107;1968853;-75
2021/07/11 05:56:06;;;;;;;11.16;5.09;;;;;;;;;;389251;105;1985937;-74
2021/07/11 05:57:11;;;;;;;10.56;5.76;;;;;;;;;;369175;107;1969924;-73
2021/07/11 05:58:34;;;;;;;8.24;5.16;;;;;;;;;;369005;109;1961953;-73
2021/07/11 05:59:39;;;;;;;7.67;4.61;;;;;;;;;;366242;109;1962020;-74
2021/07/11 06:00:45;;;;;;;8.01;4.46;;;;;;;;;;365700;109;1962956;-72
2021/07/11 06:01:50;;;;;;;7.61;4.82;;;;;;;;;;367623;108;1961925;-74
2021/07/11 06:03:24;;;;;;;10.23;4.25;;;;;;;;;;340857;101;2419970;-74
2021/07/11 06:04:30;;;;;;;10.47;4.61;;;;;;;;;;335312;105;2690027;-74
2021/07/11 06:05:37;;;;;;;9.70;4.51;;;;;;;;;;323856;105;2618088;-74
2021/07/11 06:06:45;;;;;;;8.46;5.04;;;;;;;;;;380989;105;1962073;-74
2021/07/11 06:07:50;;;;;;;9.09;5.04;;;;;;;;;;380235;105;1961979;-75
2021/07/11 06:08:56;;;;;;;9.16;5.46;;;;;;;;;;379711;105;1960905;-76
2021/07/11 06:10:03;;;;;;;7.62;4.38;;;;;;;;;;378179;105;1960775;-75
2021/07/11 06:11:08;;;;;;;7.89;4.91;;;;;;;;;;330365;107;2205794;-75
2021/07/11 06:12:15;;;;;;;8.48;4.64;;;;;;;;;;323628;105;2607806;-76
2021/07/11 06:13:27;;;;;;;14.47;6.46;;;;;;;;;;390929;104;1987057;-74
2021/07/11 06:14:32;;;;;;;11.26;6.12;;;;;;;;;;371800;107;1969731;-75
2021/07/11 06:15:37;;;;;;;9.27;5.35;;;;;;;;;;366191;109;1960759;-75
2021/07/11 06:16:42;;;;;;;13.60;4.74;;;;;;;;;;369677;108;1961028;-74
2021/07/11 06:17:48;;;;;;;8.48;4.69;;;;;;;;;;369979;107;1961868;-75
2021/07/11 06:18:59;;;;;;;8.32;5.19;;;;;;;;;;394938;104;1985874;-75
2021/07/11 06:20:09;;;;;;;7.96;4.91;;;;;;;;;;379063;107;1969015;-74
2021/07/11 06:21:14;;;;;;;7.69;4.49;;;;;;;;;;372773;106;1960885;-74
2021/07/11 06:22:19;;;;;;;6.61;3.65;;;;;;;;;;332816;107;2213922;-74
2021/07/11 06:23:24;;;;;;;6.53;3.84;;;;;;;;;;310913;107;2341015;-74
2021/07/11 06:24:30;;;;;;;7.81;4.18;;;;;;;;;;311999;109;2639868;-75
2021/07/11 06:25:43;;;;;;;7.56;3.91;;;;;;;;;;404076;101;1987001;-75
2021/07/11 06:26:49;;;;;;;9.79;5.64;;;;;;;;;;382470;103;1970023;-74
2021/07/11 06:27:54;;;;;;;9.28;5.47;;;;;;;;;;384845;103;1960955;-75
2021/07/11 06:28:58;;;;;;;10.42;5.47;;;;;;;;;;387478;104;1962043;-75
2021/07/11 06:30:11;;;;;;;11.97;6.51;;;;;;;;;;393926;103;1987077;-75
2021/07/11 06:31:16;;;;;;;9.62;5.61;;;;;;;;;;371133;106;1970037;-75
2021/07/11 06:32:21;;;;;;;11.04;6.33;;;;;;;;;;374196;105;1962978;-75